Airfield :
LOGIN :

Register | Disclaimer

   EN    FR    IT 

 










Legend :    VFR   Marginal VFR   IFR   Intensive IFR   Very Intensive IFR
Visi :
Ceiling :
>= 8 km
>= 3000ft
5 to 8 km
1000 to 3000 ft
1500m to 5 km
500 to 1000 ft
800 to 1500m
200 to 500 ft
< 800m
< 200 ft
Symbols :   Thunderstorms  Fog  Heavy snow  Heavy precipitations  Wind > 20 kt
SIGMETs :     Misc.  Thunderstorms  Icing  Turbulence  Mountain Waves  Volcanic Ashes







- Airport Elevation : 184 ft
- IATA code : BRU


EBBR - Bruxelles

CURRENT METAR :
  • 190650Z 17006KT CAVOK 12/10 Q1010 NOSIG

EXPIRED METARs :
  • 190620Z 17006KT CAVOK 12/10 Q1010 NOSIG
  • 190550Z 16005KT CAVOK 11/10 Q1010 NOSIG
  • 190520Z 14003KT CAVOK 10/09 Q1010 NOSIG
  • 190450Z 34001KT CAVOK 10/09 Q1010 NOSIG
  • 190420Z 15004KT CAVOK 11/09 Q1010 NOSIG

TAF TAF EBBR
Valid from the 19 at 06:00 until the 20 at 12:00 UTC


190510Z 1906/2012 17008KT CAVOK
PROB30
TEMPO 1914/1922 17015G25KT
PROB40
TEMPO 1922/2000 18015G25KT SHRA
TEMPO 2000/2005 18015G25KT 4000 RA BKN014
BECMG 2005/2007 23014KT
No reported NOTAMs for that airfield.



MET'MAP, your aeronautical weather chart ! - Copyright ORBIFLY December 2007 - Disclaimer

ORBIFLY MET'MAP TEAM :

Programming & Development : Alexandra Zaïnal
Concept & Development : Baudouin d'Aumeries
Co-Development & Prog : Marc-Olivier Méhu
Technical & hardware support : Manuel Goepfert

Contact : metmap@orbifly.com




SOURCES & CREDITS :

   NOAA